Stoner, Colorado
Current Conditions -  °F | °C
As of 7:53 PM on Wednesday 26 Nov 2014 (Local Time) from KCEZ Reporting Station
Clear Clear  
Wind Chill: 23°   Ceiling: Unl
Heat Index: 31°   Visibility: 10mi
Dew Point: 20°   Wind: 8mph
Humidity: 64%   Direction: 70°ENE
Pressure: 30.43"   Gusts: NA
Location:  37.5429°N, 108.35°W
Report Text: KCEZ 270253Z AUTO 07007KT 10SM CLR M01/M07 A3043 RMK AO2 SLP323 T10061067 51015
Loading
Personal Weather Stations






























Interactive Weather Map New forecast layout! Learn more

10-Day Weather Forecast

Advertisements
Track Severe Weather on mobile